Time;durP1;ratioP1;P1;durP2;ratioP2;P2;SDS_P1;SDS_P2;PMS_P1;PMS_P2;Temp;Humidity;BMP_temperature;BMP_pressure;BME280_temperature;BME280_humidity;BME280_pressure;Samples;Min_cycle;Max_cycle;Signal;HPM_P1;HPM_P2
2022/08/06 00:01:52;;;;;;;2.35;0.63;;;17.50;51.00;;;;;;5034929;28;20069;-69
2022/08/06 00:04:18;;;;;;;3.22;0.65;;;17.50;51.00;;;;;;5035141;28;20048;-69
2022/08/06 00:06:45;;;;;;;3.42;0.88;;;17.50;51.10;;;;;;5035046;28;20041;-68
2022/08/06 00:09:11;;;;;;;1.38;0.70;;;17.50;51.20;;;;;;5036113;28;20046;-68
2022/08/06 00:11:38;;;;;;;1.75;0.68;;;17.40;51.20;;;;;;5034875;28;20049;-69
2022/08/06 00:14:04;;;;;;;1.95;0.57;;;17.40;51.30;;;;;;5036159;28;20052;-68
2022/08/06 00:16:30;;;;;;;1.38;0.70;;;17.40;51.30;;;;;;5051570;28;20045;-68
2022/08/06 00:18:55;;;;;;;1.52;0.70;;;17.40;51.40;;;;;;5035036;28;20098;-68
2022/08/06 00:21:21;;;;;;;1.77;0.60;;;17.40;51.50;;;;;;5035052;28;20099;-68
2022/08/06 00:23:47;;;;;;;2.95;0.70;;;17.40;51.70;;;;;;5035231;28;20042;-68
2022/08/06 00:26:13;;;;;;;2.90;0.70;;;17.30;51.50;;;;;;5018442;28;20486;-68
2022/08/06 00:28:38;;;;;;;1.35;0.80;;;17.30;51.60;;;;;;5034490;28;20132;-69
2022/08/06 00:31:05;;;;;;;1.83;0.60;;;17.30;51.60;;;;;;5034608;28;20049;-69
2022/08/06 00:33:31;;;;;;;2.15;0.70;;;17.30;51.70;;;;;;5034839;28;20045;-69
2022/08/06 00:35:56;;;;;;;1.48;0.70;;;17.20;51.70;;;;;;5035593;28;20138;-68
2022/08/06 00:38:22;;;;;;;1.20;0.50;;;17.20;51.80;;;;;;5035762;28;20116;-68
2022/08/06 00:40:49;;;;;;;2.35;0.80;;;17.20;51.80;;;;;;5035339;28;20198;-68
2022/08/06 00:43:15;;;;;;;1.95;0.55;;;17.20;51.90;;;;;;5034317;28;20049;-68
2022/08/06 00:45:41;;;;;;;2.05;0.70;;;17.10;51.90;;;;;;5034044;28;20042;-69
2022/08/06 00:48:07;;;;;;;2.20;0.75;;;17.10;51.90;;;;;;5035077;28;20087;-68
2022/08/06 00:50:34;;;;;;;2.50;0.70;;;17.10;52.00;;;;;;5017559;28;20053;-68
2022/08/06 00:53:00;;;;;;;3.67;1.05;;;17.10;52.40;;;;;;5034060;28;20432;-68
2022/08/06 00:55:27;;;;;;;2.17;0.70;;;17.10;52.10;;;;;;5034005;28;20045;-68
2022/08/06 00:57:52;;;;;;;1.98;0.55;;;17.10;52.10;;;;;;5034207;28;20403;-69
2022/08/06 01:00:18;;;;;;;1.85;0.70;;;17.00;52.00;;;;;;5033780;28;20042;-68
2022/08/06 01:02:44;;;;;;;2.30;0.80;;;17.00;52.10;;;;;;5033904;28;20050;-68
2022/08/06 01:05:10;;;;;;;2.17;0.60;;;17.00;52.00;;;;;;5035065;28;20164;-68
2022/08/06 01:07:36;;;;;;;1.45;0.68;;;17.00;52.00;;;;;;5035035;28;20073;-69
2022/08/06 01:10:03;;;;;;;1.48;0.50;;;16.90;51.90;;;;;;5033604;28;20150;-68
2022/08/06 01:12:29;;;;;;;2.55;0.70;;;16.90;51.90;;;;;;5033584;28;20052;-68
2022/08/06 01:14:54;;;;;;;1.65;0.80;;;16.90;51.90;;;;;;5033426;28;20045;-68
2022/08/06 01:17:34;;;;;;;2.65;0.88;;;16.90;51.90;;;;;;5034612;28;20047;-68
2022/08/06 01:19:59;;;;;;;1.25;0.60;;;16.80;51.90;;;;;;5033330;28;20048;-68
2022/08/06 01:22:37;;;;;;;2.28;0.70;;;16.80;51.90;;;;;;5033293;28;20045;-68
2022/08/06 01:25:21;;;;;;;3.70;0.60;;;16.80;51.90;;;;;;5033530;28;20042;-68
2022/08/06 01:28:04;;;;;;;0.93;0.47;;;16.80;52.00;;;;;;5033135;28;20095;-68
2022/08/06 01:30:49;;;;;;;1.35;0.60;;;16.70;51.90;;;;;;5033054;28;20267;-68
2022/08/06 01:33:30;;;;;;;1.15;0.70;;;16.70;51.90;;;;;;5034343;28;20554;-68
2022/08/06 01:36:02;;;;;;;1.67;0.60;;;16.60;51.90;;;;;;5033315;28;20124;-68
2022/08/06 01:38:35;;;;;;;1.45;0.65;;;16.60;51.80;;;;;;5034256;28;20085;-67
2022/08/06 01:41:05;;;;;;;3.70;0.80;;;16.50;51.90;;;;;;5033247;28;20111;-69
2022/08/06 01:43:34;;;;;;;2.22;0.57;;;16.50;52.00;;;;;;5032916;28;20056;-68
2022/08/06 01:46:00;;;;;;;1.33;0.70;;;16.50;52.10;;;;;;5033107;28;20057;-68
2022/08/06 01:48:30;;;;;;;0.93;0.60;;;16.40;52.10;;;;;;5034033;28;20490;-68
2022/08/06 01:50:59;;;;;;;0.98;0.50;;;16.40;52.10;;;;;;5033022;28;20045;-68
2022/08/06 01:53:31;;;;;;;2.75;0.82;;;16.40;52.20;;;;;;5032970;28;20042;-68
2022/08/06 01:56:00;;;;;;;1.25;0.63;;;16.40;52.20;;;;;;5032961;28;20418;-68
2022/08/06 01:58:29;;;;;;;1.52;0.60;;;16.40;52.30;;;;;;5049483;28;20428;-67
2022/08/06 02:00:57;;;;;;;1.02;0.60;;;16.40;52.30;;;;;;5032523;28;20499;-68
2022/08/06 02:03:29;;;;;;;0.73;0.35;;;16.40;52.40;;;;;;5015722;28;20163;-68
2022/08/06 02:05:57;;;;;;;2.90;0.80;;;16.30;52.40;;;;;;5032715;28;20052;-68
2022/08/06 02:08:27;;;;;;;1.63;0.70;;;16.30;52.50;;;;;;5032384;28;20053;-67
2022/08/06 02:10:54;;;;;;;2.20;0.77;;;16.30;52.60;;;;;;5032674;28;20364;-68
2022/08/06 02:13:22;;;;;;;2.22;0.70;;;16.20;52.60;;;;;;5032510;28;20073;-68
2022/08/06 02:15:49;;;;;;;2.60;0.65;;;16.20;52.60;;;;;;5033489;28;20479;-69
2022/08/06 02:18:19;;;;;;;1.90;0.80;;;16.20;52.70;;;;;;5032207;28;20053;-68
2022/08/06 02:20:49;;;;;;;1.27;0.70;;;16.20;52.70;;;;;;5033425;28;20051;-69
2022/08/06 02:23:22;;;;;;;2.25;0.75;;;16.20;52.70;;;;;;5032154;28;20080;-68
2022/08/06 02:25:51;;;;;;;1.20;0.60;;;16.10;52.70;;;;;;5032133;28;20040;-68
2022/08/06 02:28:19;;;;;;;1.17;0.57;;;16.10;52.60;;;;;;5033166;28;20124;-68
2022/08/06 02:30:48;;;;;;;1.25;0.63;;;16.10;52.80;;;;;;5032236;28;20049;-68
2022/08/06 02:33:17;;;;;;;4.55;1.25;;;16.10;52.80;;;;;;5033293;28;20033;-68
2022/08/06 02:35:53;;;;;;;1.25;0.60;;;16.00;52.80;;;;;;5033264;28;20402;-68
2022/08/06 02:38:25;;;;;;;1.67;0.68;;;16.00;52.80;;;;;;5032057;28;20483;-68
2022/08/06 02:40:56;;;;;;;2.28;0.50;;;16.00;52.80;;;;;;5031765;28;20041;-68
2022/08/06 02:43:29;;;;;;;2.75;0.70;;;15.90;52.80;;;;;;5033235;28;20045;-68
2022/08/06 02:46:24;;;;;;;1.33;0.70;;;15.90;52.90;;;;;;5031714;28;20049;-68
2022/08/06 02:48:56;;;;;;;1.60;0.80;;;15.90;53.00;;;;;;5028901;28;20494;-67
2022/08/06 02:51:39;;;;;;;2.15;1.13;;;15.90;53.10;;;;;;5032829;28;20099;-68
2022/08/06 02:54:19;;;;;;;1.25;0.50;;;15.90;53.10;;;;;;5032977;28;20037;-68
2022/08/06 02:56:46;;;;;;;1.77;0.90;;;15.80;53.10;;;;;;5031832;28;20042;-68
2022/08/06 02:59:17;;;;;;;1.67;0.82;;;15.80;53.20;;;;;;5031521;28;20049;-68
2022/08/06 03:01:49;;;;;;;1.63;0.80;;;15.80;53.30;;;;;;5031728;28;20395;-68
2022/08/06 03:04:16;;;;;;;1.35;0.70;;;15.80;53.40;;;;;;5031533;28;20060;-68
2022/08/06 03:06:44;;;;;;;1.00;0.60;;;15.80;53.40;;;;;;5015102;28;20509;-68
2022/08/06 03:09:14;;;;;;;2.05;0.90;;;15.80;53.40;;;;;;5031461;28;20049;-68
2022/08/06 03:11:41;;;;;;;1.55;0.80;;;15.80;53.40;;;;;;5032713;28;20055;-67
2022/08/06 03:14:09;;;;;;;1.48;1.00;;;15.80;53.40;;;;;;5032746;28;20495;-68
2022/08/06 03:16:37;;;;;;;2.15;1.10;;;15.80;53.40;;;;;;5036244;28;20103;-68
2022/08/06 03:19:05;;;;;;;1.63;1.10;;;15.80;53.50;;;;;;5038076;28;20041;-68
2022/08/06 03:21:33;;;;;;;1.75;0.95;;;15.80;53.50;;;;;;5037793;28;20045;-68
2022/08/06 03:24:00;;;;;;;1.73;1.02;;;15.70;53.50;;;;;;5039230;28;20557;-68
2022/08/06 03:26:28;;;;;;;1.98;1.10;;;15.80;53.50;;;;;;5021549;28;20045;-68
2022/08/06 03:28:56;;;;;;;2.13;1.00;;;15.80;53.60;;;;;;5038918;28;20395;-67
2022/08/06 03:31:23;;;;;;;2.67;1.30;;;15.80;53.50;;;;;;5039282;28;20057;-68
2022/08/06 03:33:50;;;;;;;2.60;1.20;;;15.80;53.50;;;;;;5037867;28;20073;-69
2022/08/06 03:36:17;;;;;;;2.25;1.17;;;15.70;53.40;;;;;;5038018;28;20042;-68
2022/08/06 03:39:01;;;;;;;1.67;1.13;;;15.70;53.30;;;;;;5037730;28;20049;-69
2022/08/06 03:41:29;;;;;;;1.40;1.02;;;15.70;53.30;;;;;;5038109;28;20449;-68
2022/08/06 03:43:55;;;;;;;1.92;1.23;;;15.70;53.70;;;;;;5038098;28;20402;-68
2022/08/06 03:47:12;;;;;;;1.70;1.00;;;15.70;53.30;;;;;;5037713;28;20045;-68
2022/08/06 03:49:59;;;;;;;1.17;0.90;;;15.60;53.20;;;;;;5026494;28;20060;-62
2022/08/06 03:52:29;;;;;;;2.30;0.93;;;15.60;53.30;;;;;;5021131;28;20584;-62
2022/08/06 03:54:59;;;;;;;2.60;0.90;;;15.60;53.30;;;;;;5039090;28;20046;-62
2022/08/06 03:57:30;;;;;;;1.17;0.90;;;15.60;53.30;;;;;;5037938;28;20038;-63
2022/08/06 04:00:00;;;;;;;1.58;1.00;;;15.50;53.30;;;;;;5037571;28;20562;-62
2022/08/06 04:02:52;;;;;;;1.52;1.00;;;15.50;53.30;;;;;;5021666;28;20041;-62
2022/08/06 04:05:20;;;;;;;1.73;0.70;;;15.50;53.30;;;;;;5037610;28;20230;-62
2022/08/06 04:07:55;;;;;;;1.27;0.88;;;15.50;53.40;;;;;;5038663;28;20037;-63
2022/08/06 04:10:23;;;;;;;1.55;0.80;;;15.50;53.50;;;;;;5037754;28;20386;-62
2022/08/06 04:12:49;;;;;;;1.95;1.10;;;15.40;53.80;;;;;;5037523;28;20053;-62
2022/08/06 04:15:15;;;;;;;1.75;0.98;;;15.50;53.60;;;;;;5037508;28;20419;-62
2022/08/06 04:17:44;;;;;;;1.80;0.95;;;15.50;53.60;;;;;;5038847;28;20041;-62
2022/08/06 04:20:16;;;;;;;3.25;1.15;;;15.40;53.60;;;;;;5037361;28;20114;-63
2022/08/06 04:22:42;;;;;;;2.45;1.40;;;15.40;53.80;;;;;;5037746;28;20041;-68
2022/08/06 04:25:10;;;;;;;2.22;1.38;;;15.40;53.90;;;;;;5037637;28;20439;-67
2022/08/06 04:27:38;;;;;;;2.72;1.58;;;15.40;54.10;;;;;;5037063;28;20084;-68
2022/08/06 04:30:05;;;;;;;2.55;1.42;;;15.40;54.20;;;;;;5034279;28;20050;-67
2022/08/06 04:32:32;;;;;;;2.50;1.50;;;15.40;54.30;;;;;;5034476;28;20045;-67
2022/08/06 04:35:03;;;;;;;1.88;1.40;;;15.40;54.50;;;;;;5034298;28;20041;-67
2022/08/06 04:37:29;;;;;;;1.65;1.10;;;15.40;54.90;;;;;;5035444;28;20056;-67
2022/08/06 04:39:56;;;;;;;2.10;1.60;;;15.40;54.90;;;;;;5034124;28;20049;-67
2022/08/06 04:42:21;;;;;;;2.40;1.70;;;15.40;55.10;;;;;;5051127;28;20120;-67
2022/08/06 04:44:48;;;;;;;1.92;1.25;;;15.40;55.30;;;;;;5035479;28;20534;-68
2022/08/06 04:47:15;;;;;;;2.65;1.35;;;15.40;55.30;;;;;;5035147;28;20478;-67
2022/08/06 04:49:40;;;;;;;1.85;1.30;;;15.40;55.30;;;;;;5034263;28;20120;-69
2022/08/06 04:52:06;;;;;;;1.42;1.23;;;15.40;55.50;;;;;;5033795;28;20572;-68
2022/08/06 04:54:32;;;;;;;2.83;2.00;;;15.40;55.70;;;;;;5033736;28;20072;-68
2022/08/06 04:56:57;;;;;;;2.60;1.60;;;15.50;56.30;;;;;;5033884;28;20045;-68
2022/08/06 04:59:23;;;;;;;3.63;2.10;;;15.40;56.40;;;;;;5034035;28;20067;-68
2022/08/06 05:01:49;;;;;;;3.80;2.17;;;15.50;56.90;;;;;;5017584;28;20505;-68
2022/08/06 05:04:14;;;;;;;3.28;1.80;;;15.50;57.20;;;;;;5033931;28;20478;-68
2022/08/06 05:06:46;;;;;;;2.35;1.83;;;15.50;57.40;;;;;;5033538;28;20501;-68
2022/08/06 05:09:17;;;;;;;5.55;2.22;;;15.50;57.70;;;;;;5033474;28;20042;-68
2022/08/06 05:11:48;;;;;;;2.92;1.80;;;15.50;58.20;;;;;;5033477;28;20052;-68
2022/08/06 05:14:19;;;;;;;5.13;2.10;;;15.50;58.80;;;;;;5034654;28;20048;-67
2022/08/06 05:16:48;;;;;;;3.95;1.92;;;15.70;59.50;;;;;;5033633;28;20042;-67
2022/08/06 05:19:23;;;;;;;2.72;1.85;;;15.90;59.70;;;;;;5033358;28;20124;-68
2022/08/06 05:21:50;;;;;;;2.40;1.77;;;16.10;59.30;;;;;;5033131;28;20060;-69
2022/08/06 05:24:16;;;;;;;3.55;1.63;;;16.30;58.90;;;;;;5033563;28;20077;-67
2022/08/06 05:26:42;;;;;;;2.70;1.30;;;16.40;58.40;;;;;;5033136;28;20093;-67
2022/08/06 05:29:08;;;;;;;2.75;1.50;;;16.40;58.00;;;;;;5034207;28;20057;-67
2022/08/06 05:31:35;;;;;;;3.05;1.40;;;16.50;58.00;;;;;;5016697;28;20046;-68
2022/08/06 05:34:02;;;;;;;2.65;1.40;;;16.50;57.80;;;;;;5033125;28;20116;-68
2022/08/06 05:36:28;;;;;;;1.83;1.27;;;16.60;57.90;;;;;;5033071;28;20038;-68
2022/08/06 05:38:54;;;;;;;3.28;1.63;;;16.60;57.70;;;;;;5033899;28;20037;-67
2022/08/06 05:41:20;;;;;;;1.98;1.40;;;16.60;57.50;;;;;;5032951;28;20486;-67
2022/08/06 05:43:46;;;;;;;2.72;1.50;;;16.70;57.40;;;;;;5034224;28;20050;-62
2022/08/06 05:46:19;;;;;;;2.03;1.48;;;16.70;57.70;;;;;;5033078;28;20459;-62
2022/08/06 05:49:13;;;;;;;2.65;1.55;;;16.70;57.80;;;;;;5034006;28;20050;-62
2022/08/06 05:51:48;;;;;;;3.85;1.95;;;16.70;58.00;;;;;;5014174;28;20406;-62
2022/08/06 05:54:40;;;;;;;4.13;1.50;;;16.80;58.90;;;;;;5049527;28;20399;-62
2022/08/06 05:57:15;;;;;;;2.40;1.42;;;17.10;59.70;;;;;;5032683;28;20487;-62
2022/08/06 05:59:48;;;;;;;3.05;1.35;;;17.60;59.60;;;;;;5033894;28;20512;-62
2022/08/06 06:02:15;;;;;;;3.47;1.98;;;18.00;59.70;;;;;;5032577;28;20056;-62
2022/08/06 06:04:43;;;;;;;4.20;1.70;;;18.50;58.50;;;;;;5032836;28;20372;-62
2022/08/06 06:07:09;;;;;;;2.22;1.23;;;19.10;57.70;;;;;;5032319;28;20041;-63
2022/08/06 06:09:37;;;;;;;4.80;1.95;;;19.70;56.70;;;;;;5033872;28;20372;-62
2022/08/06 06:12:04;;;;;;;1.75;1.13;;;20.30;55.50;;;;;;5032414;28;20121;-63
2022/08/06 06:14:43;;;;;;;2.78;1.20;;;20.80;54.50;;;;;;5048547;28;20565;-62
2022/08/06 06:17:31;;;;;;;2.90;1.02;;;21.40;53.50;;;;;;5033828;28;20372;-63
2022/08/06 06:20:18;;;;;;;3.10;1.00;;;21.90;52.40;;;;;;5032394;28;20045;-63
2022/08/06 06:22:52;;;;;;;1.80;1.33;;;22.50;51.30;;;;;;5032274;28;20033;-63
2022/08/06 06:25:25;;;;;;;;;;;23.00;50.60;;;;;;5032548;28;20049;-63
2022/08/06 06:28:22;;;;;;;4.75;1.27;;;23.50;50.00;;;;;;5048591;28;19996;-63
2022/08/06 06:31:11;;;;;;;2.30;1.10;;;24.00;48.70;;;;;;5015611;28;20050;-63
2022/08/06 06:34:08;;;;;;;3.55;1.27;;;24.50;48.00;;;;;;5032095;28;20052;-63
2022/08/06 06:36:46;;;;;;;2.00;0.90;;;24.90;47.00;;;;;;5032929;28;20056;-63
2022/08/06 06:39:36;;;;;;;1.33;0.70;;;25.40;46.10;;;;;;5031903;28;20049;-63
2022/08/06 06:42:45;;;;;;;3.10;0.90;;;25.70;45.20;;;;;;5033069;28;20487;-63
2022/08/06 06:45:17;;;;;;;2.65;0.70;;;26.10;44.10;;;;;;5031668;28;20081;-64
2022/08/06 06:47:59;;;;;;;1.90;0.60;;;26.50;43.50;;;;;;5031669;28;20080;-64
2022/08/06 06:50:34;;;;;;;1.20;0.45;;;26.70;42.30;;;;;;5047619;28;20033;-64
2022/08/06 06:53:00;;;;;;;1.70;0.45;;;26.80;41.70;;;;;;5032836;28;20076;-64
2022/08/06 06:55:32;;;;;;;1.70;0.50;;;26.80;41.50;;;;;;5033420;28;20049;-64
2022/08/06 06:58:11;;;;;;;1.90;0.40;;;26.90;41.10;;;;;;5031609;28;20045;-64
2022/08/06 07:00:38;;;;;;;2.65;0.47;;;27.10;41.10;;;;;;5032893;28;20475;-62
2022/08/06 07:03:06;;;;;;;3.15;0.47;;;27.30;40.80;;;;;;5032858;28;20033;-64
2022/08/06 07:05:36;;;;;;;2.05;0.50;;;27.50;40.30;;;;;;5031596;28;20052;-64
2022/08/06 07:08:04;;;;;;;3.30;0.45;;;27.80;40.30;;;;;;5031357;28;20037;-64
2022/08/06 07:10:31;;;;;;;1.95;0.57;;;28.00;39.90;;;;;;5031566;28;20046;-64
2022/08/06 07:12:59;;;;;;;1.00;0.30;;;28.20;39.40;;;;;;5032863;28;20372;-63
2022/08/06 07:15:26;;;;;;;0.75;0.30;;;28.30;38.80;;;;;;5031493;28;20053;-63
2022/08/06 07:17:53;;;;;;;1.70;0.40;;;28.50;38.60;;;;;;5032572;28;20502;-64
2022/08/06 07:20:24;;;;;;;1.70;0.40;;;28.50;38.20;;;;;;5031265;28;20049;-64
2022/08/06 07:22:52;;;;;;;2.35;0.47;;;28.60;38.20;;;;;;5032515;28;20049;-64
2022/08/06 07:25:18;;;;;;;1.67;0.40;;;28.70;38.00;;;;;;5031307;28;20044;-63
2022/08/06 07:27:50;;;;;;;1.55;0.40;;;28.80;37.70;;;;;;5031341;28;20049;-64
2022/08/06 07:30:18;;;;;;;1.88;0.57;;;28.80;37.60;;;;;;5031130;28;20061;-64
2022/08/06 07:32:45;;;;;;;2.53;0.52;;;28.90;37.20;;;;;;5031199;28;20128;-64
2022/08/06 07:35:12;;;;;;;1.52;0.40;;;29.10;37.20;;;;;;5032685;28;20076;-70
2022/08/06 07:37:44;;;;;;;3.65;0.38;;;29.20;36.80;;;;;;5031736;28;20416;-69
2022/08/06 07:40:19;;;;;;;2.65;0.73;;;29.20;36.40;;;;;;5031433;28;20475;-70
2022/08/06 07:42:48;;;;;;;1.55;0.50;;;29.30;36.40;;;;;;5048235;28;20049;-69
2022/08/06 07:45:17;;;;;;;2.50;0.50;;;29.40;36.10;;;;;;5031355;28;20053;-69
2022/08/06 07:47:43;;;;;;;1.45;0.45;;;29.40;35.80;;;;;;5031244;28;20047;-69
2022/08/06 07:50:13;;;;;;;2.47;0.60;;;29.40;35.90;;;;;;5032974;28;20084;-69
2022/08/06 07:52:40;;;;;;;2.05;0.70;;;29.30;36.00;;;;;;5031220;28;20045;-68
2022/08/06 07:55:10;;;;;;;2.55;0.80;;;29.30;35.90;;;;;;5032283;28;20033;-69
2022/08/06 07:57:37;;;;;;;2.15;0.63;;;29.20;36.00;;;;;;5031499;28;20372;-64
2022/08/06 08:00:04;;;;;;;1.58;0.60;;;29.30;35.90;;;;;;5032539;28;20398;-64
2022/08/06 08:02:30;;;;;;;3.95;0.90;;;29.40;35.80;;;;;;5032977;28;20045;-64
2022/08/06 08:07:40;;;;;;;1.75;0.50;;;29.40;36.00;;;;;;5034858;28;20454;-64
2022/08/06 08:10:07;;;;;;;2.55;0.50;;;29.40;35.70;;;;;;5034642;28;20041;-64
2022/08/06 08:12:36;;;;;;;1.23;0.63;;;29.30;35.40;;;;;;5034672;28;20041;-64
2022/08/06 08:15:04;;;;;;;3.13;0.80;;;29.20;35.70;;;;;;5034523;28;20490;-64
2022/08/06 08:17:30;;;;;;;1.75;0.68;;;29.10;35.80;;;;;;5018005;28;20094;-64
2022/08/06 08:20:07;;;;;;;3.78;1.00;;;29.00;36.10;;;;;;5034439;28;20128;-64
2022/08/06 08:22:34;;;;;;;2.10;0.50;;;29.10;36.40;;;;;;5035591;28;20072;-64
2022/08/06 08:25:00;;;;;;;2.13;0.50;;;29.10;36.40;;;;;;5034366;28;20048;-63
2022/08/06 08:27:25;;;;;;;2.72;0.73;;;29.10;36.10;;;;;;5034361;28;20045;-63
2022/08/06 08:29:52;;;;;;;1.85;0.60;;;29.10;36.00;;;;;;5017716;28;20053;-63
2022/08/06 08:32:17;;;;;;;1.75;0.68;;;29.10;35.80;;;;;;5035626;28;20125;-64
2022/08/06 08:34:43;;;;;;;1.33;0.70;;;29.10;36.40;;;;;;5034194;28;20123;-64
2022/08/06 08:37:09;;;;;;;1.45;0.52;;;29.10;35.90;;;;;;5034182;28;20041;-64
2022/08/06 08:39:35;;;;;;;2.30;0.93;;;29.10;36.10;;;;;;5035384;28;20469;-64
2022/08/06 08:42:08;;;;;;;1.92;0.75;;;29.10;36.10;;;;;;5034087;28;20049;-63
2022/08/06 08:44:34;;;;;;;2.53;0.80;;;29.10;35.90;;;;;;5034048;28;20041;-64
2022/08/06 08:47:01;;;;;;;1.10;0.70;;;29.10;35.90;;;;;;5033997;28;20506;-63
2022/08/06 08:49:40;;;;;;;3.67;0.93;;;29.10;35.80;;;;;;5033913;28;20053;-63
2022/08/06 08:52:27;;;;;;;1.63;0.75;;;29.20;35.70;;;;;;5034193;28;20064;-64
2022/08/06 08:54:58;;;;;;;2.20;1.00;;;29.20;35.60;;;;;;5034187;28;20055;-64
2022/08/06 08:57:26;;;;;;;2.15;1.08;;;29.10;35.40;;;;;;5033906;28;20045;-65
2022/08/06 08:59:52;;;;;;;1.88;1.10;;;29.00;35.00;;;;;;5033826;28;20073;-64
2022/08/06 09:02:18;;;;;;;2.05;0.85;;;28.90;35.00;;;;;;5034896;28;20100;-65
2022/08/06 09:04:44;;;;;;;4.97;1.45;;;28.90;35.50;;;;;;5034994;28;20042;-64
2022/08/06 09:07:10;;;;;;;2.78;1.15;;;28.80;35.40;;;;;;5033725;28;20120;-64
2022/08/06 09:09:38;;;;;;;2.72;0.98;;;28.80;36.00;;;;;;5033429;28;20132;-64
2022/08/06 09:12:05;;;;;;;2.30;1.30;;;28.80;36.00;;;;;;5033624;28;20073;-64
2022/08/06 09:14:31;;;;;;;2.55;1.10;;;28.80;35.90;;;;;;5032464;28;20044;-64
2022/08/06 09:16:58;;;;;;;2.65;1.00;;;28.80;35.90;;;;;;5033444;28;20040;-64
2022/08/06 09:19:28;;;;;;;3.05;1.35;;;28.80;35.40;;;;;;5033618;28;20095;-64
2022/08/06 09:21:56;;;;;;;3.45;1.10;;;28.70;35.10;;;;;;5033430;28;20398;-64
2022/08/06 09:24:22;;;;;;;3.00;1.30;;;28.70;34.80;;;;;;5033295;28;20037;-64
2022/08/06 09:27:15;;;;;;;2.10;1.08;;;28.60;34.90;;;;;;5033607;28;20368;-64
2022/08/06 09:29:50;;;;;;;2.20;1.00;;;28.60;35.40;;;;;;5034310;28;20053;-64
2022/08/06 09:32:35;;;;;;;3.63;1.30;;;28.60;35.60;;;;;;5033245;28;20049;-65
2022/08/06 09:35:01;;;;;;;2.05;1.10;;;28.60;35.70;;;;;;5033385;28;20103;-65
2022/08/06 09:37:30;;;;;;;4.70;1.20;;;28.60;35.60;;;;;;5034281;28;20112;-65
2022/08/06 09:39:56;;;;;;;2.13;1.33;;;28.60;35.50;;;;;;5033056;28;20069;-65
2022/08/06 09:42:40;;;;;;;2.42;1.45;;;28.50;35.10;;;;;;5034322;28;20037;-65
2022/08/06 09:45:07;;;;;;;2.33;1.10;;;28.50;35.60;;;;;;5032832;28;20030;-65
2022/08/06 09:47:34;;;;;;;3.53;1.33;;;28.40;35.30;;;;;;5032676;28;20046;-65
2022/08/06 09:50:00;;;;;;;4.03;1.20;;;28.30;35.40;;;;;;5032779;28;20112;-65
2022/08/06 09:52:25;;;;;;;2.33;1.10;;;28.30;35.10;;;;;;5032804;28;20129;-69
2022/08/06 09:54:51;;;;;;;2.55;1.13;;;28.30;35.50;;;;;;5033014;28;20046;-70
2022/08/06 09:57:16;;;;;;;3.50;1.38;;;28.30;35.80;;;;;;5033975;28;20067;-70
2022/08/06 09:59:47;;;;;;;3.17;1.15;;;28.40;35.90;;;;;;5034191;28;20102;-69
2022/08/06 10:02:15;;;;;;;2.85;1.77;;;28.40;35.70;;;;;;5033880;28;20060;-69
2022/08/06 10:04:41;;;;;;;1.80;1.30;;;28.40;36.00;;;;;;5033688;28;20091;-70
2022/08/06 10:07:07;;;;;;;1.70;1.48;;;28.30;35.80;;;;;;5032517;28;20077;-69
2022/08/06 10:09:33;;;;;;;1.88;1.20;;;28.30;35.70;;;;;;5049135;28;20077;-69
2022/08/06 10:11:59;;;;;;;3.50;1.63;;;28.30;35.20;;;;;;5032701;28;20512;-69
2022/08/06 10:14:31;;;;;;;2.40;1.30;;;28.30;34.60;;;;;;5032389;28;20490;-69
2022/08/06 10:17:08;;;;;;;3.13;1.33;;;28.30;34.70;;;;;;5032316;28;20046;-69
2022/08/06 10:19:35;;;;;;;3.92;1.48;;;28.30;34.30;;;;;;5033724;28;20394;-69
2022/08/06 10:22:06;;;;;;;1.85;1.13;;;28.30;34.20;;;;;;5032172;28;20045;-70
2022/08/06 10:24:37;;;;;;;2.70;1.50;;;28.30;34.70;;;;;;5032113;28;20052;-69
2022/08/06 10:27:07;;;;;;;1.48;1.23;;;28.40;34.80;;;;;;5032434;28;20049;-69
2022/08/06 10:29:37;;;;;;;1.88;1.15;;;28.40;34.80;;;;;;5032993;28;20287;-68
2022/08/06 10:32:05;;;;;;;2.17;1.25;;;28.40;34.90;;;;;;5033515;28;20395;-69
2022/08/06 10:34:34;;;;;;;3.30;1.30;;;28.30;35.10;;;;;;5031974;28;20131;-69
2022/08/06 10:37:05;;;;;;;3.25;1.23;;;28.20;34.90;;;;;;5031927;28;20045;-69
2022/08/06 10:39:36;;;;;;;2.80;1.20;;;28.10;35.10;;;;;;5048890;28;20048;-70
2022/08/06 10:42:04;;;;;;;2.45;1.40;;;28.10;35.50;;;;;;5048446;28;20049;-69
2022/08/06 10:44:30;;;;;;;3.17;1.02;;;27.90;35.20;;;;;;5031965;28;20049;-69
2022/08/06 10:46:56;;;;;;;2.17;1.13;;;27.80;35.30;;;;;;5031772;28;20049;-69
2022/08/06 10:49:23;;;;;;;2.20;1.48;;;27.70;35.40;;;;;;5031831;28;20044;-69
2022/08/06 10:51:49;;;;;;;1.33;0.88;;;27.60;35.50;;;;;;5031894;28;20041;-69
2022/08/06 10:54:19;;;;;;;2.03;1.35;;;27.50;35.80;;;;;;5033060;28;20049;-68
2022/08/06 10:56:48;;;;;;;3.65;1.40;;;27.40;35.70;;;;;;5032905;28;20434;-68
2022/08/06 10:59:15;;;;;;;2.58;1.20;;;27.30;35.60;;;;;;5031607;28;20048;-68
2022/08/06 11:02:12;;;;;;;2.17;1.50;;;27.20;35.40;;;;;;5031590;28;20375;-68
2022/08/06 11:05:04;;;;;;;2.80;1.20;;;27.10;36.00;;;;;;5032888;28;20583;-68
2022/08/06 11:08:00;;;;;;;2.53;0.98;;;26.90;36.20;;;;;;5032920;28;20041;-68
2022/08/06 11:11:11;;;;;;;2.83;0.98;;;26.80;36.40;;;;;;5032825;28;20124;-68
2022/08/06 11:13:55;;;;;;;2.95;1.30;;;26.60;36.10;;;;;;5031421;28;20521;-68
2022/08/06 11:16:28;;;;;;;2.28;1.23;;;26.50;36.70;;;;;;5032690;28;20103;-63
2022/08/06 11:19:09;;;;;;;3.42;1.60;;;26.40;36.90;;;;;;5031487;28;20550;-63
2022/08/06 11:21:41;;;;;;;3.35;1.30;;;26.30;37.20;;;;;;5032613;28;20042;-63
2022/08/06 11:24:07;;;;;;;3.17;1.35;;;26.20;37.10;;;;;;5031416;28;20045;-63
2022/08/06 11:26:39;;;;;;;3.35;1.23;;;26.10;37.40;;;;;;5031686;28;20120;-63
2022/08/06 11:29:07;;;;;;;3.10;1.30;;;26.10;36.70;;;;;;5031070;28;20096;-63
2022/08/06 11:31:34;;;;;;;3.45;1.70;;;26.00;36.90;;;;;;5032527;28;20041;-67
2022/08/06 11:34:10;;;;;;;3.08;1.33;;;26.00;37.20;;;;;;5031341;28;20073;-68
2022/08/06 11:36:56;;;;;;;2.83;1.70;;;26.00;36.90;;;;;;5031866;28;20113;-63
2022/08/06 11:39:27;;;;;;;2.78;1.50;;;26.00;37.10;;;;;;5036570;28;20041;-63
2022/08/06 11:41:59;;;;;;;2.38;1.70;;;26.00;36.90;;;;;;5036605;28;20049;-63
2022/08/06 11:44:34;;;;;;;2.08;1.20;;;26.00;36.90;;;;;;5036515;28;20095;-63
2022/08/06 11:47:09;;;;;;;1.60;1.15;;;26.00;36.30;;;;;;5035478;28;20089;-63
2022/08/06 11:49:46;;;;;;;2.17;1.10;;;26.00;36.40;;;;;;5034895;28;20084;-64
2022/08/06 11:52:30;;;;;;;2.22;1.15;;;26.00;36.30;;;;;;5035100;28;20120;-64
2022/08/06 11:55:00;;;;;;;2.05;1.13;;;26.00;36.30;;;;;;5036254;28;20042;-64
2022/08/06 11:57:26;;;;;;;3.05;1.33;;;26.00;36.10;;;;;;5034861;28;20501;-63
2022/08/06 11:59:54;;;;;;;2.70;1.48;;;26.10;36.20;;;;;;5034892;28;20033;-63
2022/08/06 12:02:39;;;;;;;1.42;1.02;;;26.20;35.70;;;;;;5034985;28;20042;-63
2022/08/06 12:05:06;;;;;;;2.05;1.30;;;26.20;35.00;;;;;;5034854;28;20048;-63
2022/08/06 12:07:34;;;;;;;1.92;1.05;;;26.30;35.40;;;;;;5035935;28;20041;-63
2022/08/06 12:10:09;;;;;;;2.35;1.30;;;26.30;35.20;;;;;;5035016;28;20045;-63
2022/08/06 12:12:37;;;;;;;2.38;1.42;;;26.40;35.60;;;;;;5036160;28;20041;-63
2022/08/06 12:15:03;;;;;;;3.72;1.35;;;26.40;36.00;;;;;;5034616;28;20052;-63
2022/08/06 12:17:30;;;;;;;3.67;1.27;;;26.40;36.50;;;;;;5034571;28;20042;-63
2022/08/06 12:20:02;;;;;;;3.58;1.30;;;26.40;36.80;;;;;;5034415;28;20077;-64
2022/08/06 12:22:28;;;;;;;4.20;2.00;;;26.40;37.00;;;;;;5051347;28;20129;-63
2022/08/06 12:24:58;;;;;;;4.10;1.73;;;26.40;37.70;;;;;;5035801;28;20356;-63
2022/08/06 12:27:34;;;;;;;2.25;1.52;;;26.50;37.30;;;;;;5034322;28;20134;-63
2022/08/06 12:30:03;;;;;;;2.38;1.45;;;26.50;37.30;;;;;;5034061;28;20053;-63
2022/08/06 12:32:31;;;;;;;1.98;1.20;;;26.60;37.30;;;;;;5035481;28;20496;-63
2022/08/06 12:35:00;;;;;;;2.08;1.20;;;26.60;37.40;;;;;;5035784;28;20034;-63
2022/08/06 12:37:37;;;;;;;2.80;1.27;;;26.70;36.90;;;;;;5035668;28;20071;-63
2022/08/06 12:40:24;;;;;;;2.35;1.13;;;26.70;36.80;;;;;;5035309;28;20480;-62
2022/08/06 12:42:59;;;;;;;3.28;1.80;;;26.80;36.60;;;;;;5035322;28;20050;-63
2022/08/06 12:45:25;;;;;;;1.90;1.13;;;26.80;36.90;;;;;;5034041;28;20045;-63
2022/08/06 12:48:02;;;;;;;3.28;1.70;;;26.90;35.50;;;;;;5033148;28;20037;-63
2022/08/06 12:50:29;;;;;;;2.53;1.20;;;26.90;34.70;;;;;;5033782;28;20045;-63
2022/08/06 12:53:01;;;;;;;1.80;1.17;;;26.90;35.10;;;;;;5034120;28;20077;-64
2022/08/06 12:55:28;;;;;;;2.72;1.25;;;26.90;36.00;;;;;;5033823;28;20047;-64
2022/08/06 12:57:55;;;;;;;1.95;1.20;;;27.00;35.80;;;;;;5033819;28;20045;-64
2022/08/06 13:00:21;;;;;;;3.70;1.33;;;27.00;34.80;;;;;;5033680;28;20053;-64
2022/08/06 13:02:48;;;;;;;1.60;1.13;;;27.00;35.60;;;;;;5033637;28;20082;-64
2022/08/06 13:05:15;;;;;;;2.60;1.30;;;27.00;35.80;;;;;;5033656;28;20084;-64
2022/08/06 13:07:42;;;;;;;3.25;1.30;;;27.00;35.20;;;;;;5017095;28;20490;-64
2022/08/06 13:10:10;;;;;;;3.40;1.27;;;27.00;35.50;;;;;;5034799;28;20038;-64